createdAt,value
2019-04-07T00:01:01.365Z,8.36
2019-04-07T00:03:34.582Z,8.27
2019-04-07T00:06:07.491Z,8.18
2019-04-07T00:08:40.832Z,8.08
2019-04-07T00:11:13.959Z,8.00
2019-04-07T00:13:47.051Z,7.90
2019-04-07T00:16:20.156Z,7.86
2019-04-07T00:18:53.513Z,7.74
2019-04-07T00:21:26.345Z,8.94
2019-04-07T00:24:01.509Z,11.01
2019-04-07T00:26:34.570Z,12.88
2019-04-07T00:29:07.402Z,13.32
2019-04-07T00:31:40.226Z,12.80
2019-04-07T00:34:13.047Z,12.31
2019-04-07T00:36:46.874Z,11.91
2019-04-07T00:39:20.686Z,11.55
2019-04-07T00:41:53.471Z,11.17
2019-04-07T00:44:25.977Z,10.83
2019-04-07T00:46:58.687Z,10.50
2019-04-07T00:49:31.226Z,10.22
2019-04-07T00:52:05.090Z,9.94
2019-04-07T00:54:38.066Z,9.66
2019-04-07T00:57:10.963Z,9.41
2019-04-07T00:59:44.027Z,9.18
2019-04-07T01:02:17.116Z,8.94
2019-04-07T01:04:49.748Z,8.73
2019-04-07T01:07:22.295Z,8.49
2019-04-07T01:09:55.275Z,8.29
2019-04-07T01:12:28.164Z,8.14
2019-04-07T01:15:00.771Z,8.00
2019-04-07T01:17:34.781Z,7.86
2019-04-07T01:20:10.568Z,7.73
2019-04-07T01:22:44.205Z,7.62
2019-04-07T01:25:16.892Z,7.47
2019-04-07T01:27:49.936Z,7.38
2019-04-07T01:30:22.989Z,8.59
2019-04-07T01:32:56.357Z,10.75
2019-04-07T01:35:29.121Z,12.60
2019-04-07T01:38:02.981Z,13.86
2019-04-07T01:40:35.575Z,13.99
2019-04-07T01:43:16.220Z,13.38
2019-04-07T01:45:55.075Z,12.79
2019-04-07T01:48:29.298Z,12.31
2019-04-07T01:51:03.331Z,11.83
2019-04-07T01:53:53.144Z,11.39
2019-04-07T01:56:36.264Z,10.96
2019-04-07T01:59:13.646Z,10.52
2019-04-07T02:02:04.698Z,10.17
2019-04-07T02:04:43.572Z,9.76
2019-04-07T02:07:27.281Z,9.41
2019-04-07T02:10:08.726Z,9.11
2019-04-07T02:12:42.946Z,8.79
2019-04-07T02:15:33.111Z,8.52
2019-04-07T02:18:16.391Z,8.22
2019-04-07T02:21:04.320Z,7.97
2019-04-07T02:23:43.713Z,7.76
2019-04-07T02:26:28.073Z,7.56
2019-04-07T02:29:06.653Z,7.34
2019-04-07T02:31:40.094Z,7.19
2019-04-07T02:34:16.067Z,7.04
2019-04-07T02:36:56.381Z,8.18
2019-04-07T02:39:34.717Z,10.50
2019-04-07T02:42:07.166Z,12.31
2019-04-07T02:44:41.387Z,13.53
2019-04-07T02:47:15.977Z,13.59
2019-04-07T02:50:03.282Z,12.88
2019-04-07T02:52:37.676Z,12.27
2019-04-07T02:55:13.092Z,11.74
2019-04-07T02:57:47.822Z,11.25
2019-04-07T03:00:22.876Z,10.79
2019-04-07T03:02:57.977Z,10.35
2019-04-07T03:05:38.877Z,9.93
2019-04-07T03:08:18.410Z,9.56
2019-04-07T03:11:02.172Z,9.21
2019-04-07T03:13:54.074Z,8.87
2019-04-07T03:16:33.111Z,8.50
2019-04-07T03:19:23.701Z,8.20
2019-04-07T03:22:08.480Z,7.89
2019-04-07T03:24:42.747Z,7.62
2019-04-07T03:27:33.835Z,7.36
2019-04-07T03:30:11.483Z,7.12
2019-04-07T03:32:53.270Z,6.93
2019-04-07T03:35:43.754Z,8.12
2019-04-07T03:38:33.660Z,10.39
2019-04-07T03:41:23.969Z,12.25
2019-04-07T03:44:03.863Z,12.52
2019-04-07T03:46:44.057Z,11.86
2019-04-07T03:49:35.129Z,11.25
2019-04-07T03:52:12.597Z,10.73
2019-04-07T03:54:57.188Z,10.27
2019-04-07T03:57:45.048Z,9.82
2019-04-07T04:01:08.522Z,9.36
2019-04-07T04:03:46.029Z,8.88
2019-04-07T04:06:19.408Z,8.55
2019-04-07T04:08:56.896Z,8.18
2019-04-07T04:11:32.292Z,7.87
2019-04-07T04:14:23.811Z,7.59
2019-04-07T04:16:57.498Z,7.27
2019-04-07T04:19:30.546Z,7.04
2019-04-07T04:22:03.989Z,6.80
2019-04-07T04:24:36.835Z,7.83
2019-04-07T04:27:09.393Z,9.96
2019-04-07T04:29:43.442Z,11.83
2019-04-07T04:32:16.699Z,13.03
2019-04-07T04:34:49.661Z,13.14
2019-04-07T04:37:37.727Z,12.45
2019-04-07T04:39:57.387Z,11.82
2019-04-07T04:42:31.167Z,11.25
2019-04-07T04:45:04.282Z,10.76
2019-04-07T04:47:37.641Z,10.31
2019-04-07T04:50:12.875Z,9.87
2019-04-07T04:52:46.898Z,9.50
2019-04-07T04:55:20.873Z,9.14
2019-04-07T04:57:54.500Z,8.84
2019-04-07T05:00:27.213Z,8.52
2019-04-07T05:03:00.952Z,8.27
2019-04-07T05:05:34.465Z,8.04
2019-04-07T05:08:07.220Z,7.86
2019-04-07T05:10:39.716Z,7.73
2019-04-07T05:13:12.495Z,7.62
2019-04-07T05:15:45.630Z,7.53
2019-04-07T05:18:18.246Z,7.45
2019-04-07T05:20:51.471Z,7.42
2019-04-07T05:23:25.253Z,7.38
2019-04-07T05:25:58.278Z,8.70
2019-04-07T05:28:33.729Z,11.04
2019-04-07T05:31:05.666Z,13.07
2019-04-07T05:33:38.462Z,13.55
2019-04-07T05:36:11.310Z,13.06
2019-04-07T05:38:44.561Z,12.62
2019-04-07T05:41:17.371Z,12.31
2019-04-07T05:43:50.280Z,12.08
2019-04-07T05:46:23.818Z,11.86
2019-04-07T05:48:56.653Z,11.69
2019-04-07T05:51:30.060Z,11.52
2019-04-07T05:54:03.627Z,11.35
2019-04-07T05:56:36.891Z,11.19
2019-04-07T05:59:12.006Z,11.08
2019-04-07T06:01:44.548Z,10.98
2019-04-07T06:04:19.159Z,10.90
2019-04-07T06:06:54.862Z,10.82
2019-04-07T06:09:26.409Z,10.73
2019-04-07T06:11:59.872Z,10.69
2019-04-07T06:14:32.636Z,10.62
2019-04-07T06:17:06.409Z,10.62
2019-04-07T06:19:41.206Z,10.60
2019-04-07T06:22:13.370Z,10.59
2019-04-07T06:24:46.121Z,10.60
2019-04-07T06:27:18.972Z,10.62
2019-04-07T06:29:52.191Z,10.63
2019-04-07T06:32:26.722Z,10.66
2019-04-07T06:34:59.531Z,10.72
2019-04-07T06:37:33.063Z,10.77
2019-04-07T06:40:06.929Z,10.84
2019-04-07T06:42:40.482Z,10.93
2019-04-07T06:45:15.086Z,11.00
2019-04-07T06:47:53.422Z,11.07
2019-04-07T06:50:48.613Z,11.15
2019-04-07T06:53:18.613Z,11.19
2019-04-07T06:56:08.921Z,11.28
2019-04-07T06:59:00.321Z,11.35
2019-04-07T07:01:38.552Z,11.45
2019-04-07T07:04:29.107Z,11.59
2019-04-07T07:07:07.317Z,11.68
2019-04-07T07:09:51.937Z,11.80
2019-04-07T07:12:38.710Z,11.91
2019-04-07T07:15:25.816Z,12.00
2019-04-07T07:18:10.254Z,12.14
2019-04-07T07:20:51.620Z,12.32
2019-04-07T07:23:28.647Z,12.41
2019-04-07T07:26:03.146Z,12.51
2019-04-07T07:28:36.047Z,12.60
2019-04-07T07:31:10.466Z,12.73
2019-04-07T07:33:43.972Z,12.87
2019-04-07T07:36:20.729Z,13.08
2019-04-07T07:38:59.998Z,13.21
2019-04-07T07:41:26.331Z,13.32
2019-04-07T07:44:03.189Z,13.46
2019-04-07T07:46:34.657Z,13.55
2019-04-07T07:49:07.582Z,13.72
2019-04-07T07:51:40.592Z,13.83
2019-04-07T07:54:15.964Z,13.94
2019-04-07T07:56:51.165Z,14.06
2019-04-07T07:59:24.065Z,14.18
2019-04-07T08:01:57.652Z,14.27
2019-04-07T08:04:30.613Z,14.41
2019-04-07T08:07:03.335Z,14.56
2019-04-07T08:09:35.885Z,14.72
2019-04-07T08:12:09.601Z,14.89
2019-04-07T08:14:43.749Z,15.03
2019-04-07T08:17:16.225Z,15.13
2019-04-07T08:19:49.261Z,15.23
2019-04-07T08:22:31.319Z,15.35
2019-04-07T08:24:56.666Z,15.45
2019-04-07T08:27:31.715Z,15.54
2019-04-07T08:30:09.949Z,15.59
2019-04-07T08:32:39.897Z,15.65
2019-04-07T08:35:13.101Z,15.73
2019-04-07T08:37:47.876Z,15.85
2019-04-07T08:40:21.503Z,15.99
2019-04-07T08:42:54.121Z,16.13
2019-04-07T08:45:29.977Z,16.24
2019-04-07T08:48:01.227Z,16.40
2019-04-07T08:50:34.271Z,16.52
2019-04-07T08:53:10.335Z,16.66
2019-04-07T08:55:42.778Z,16.78
2019-04-07T08:58:25.167Z,16.85
2019-04-07T09:00:53.738Z,16.91
2019-04-07T09:03:26.576Z,16.92
2019-04-07T09:05:59.792Z,16.93
2019-04-07T09:08:34.707Z,16.99
2019-04-07T09:11:08.995Z,17.00
2019-04-07T09:13:44.100Z,17.06
2019-04-07T09:16:25.050Z,17.09
2019-04-07T09:19:08.366Z,17.07
2019-04-07T09:21:59.141Z,17.11
2019-04-07T09:24:33.555Z,17.20
2019-04-07T09:27:08.101Z,17.21
2019-04-07T09:29:53.391Z,17.26
2019-04-07T09:32:29.078Z,17.26
2019-04-07T09:35:22.878Z,17.24
2019-04-07T09:38:14.363Z,17.27
2019-04-07T09:40:48.790Z,17.27
2019-04-07T09:43:32.617Z,17.31
2019-04-07T09:46:14.714Z,17.35
2019-04-07T09:49:07.809Z,17.40
2019-04-07T09:51:41.529Z,17.51
2019-04-07T09:54:19.186Z,17.57
2019-04-07T09:57:09.654Z,17.60
2019-04-07T09:59:56.881Z,17.62
2019-04-07T10:02:34.507Z,17.65
2019-04-07T10:05:11.143Z,17.68
2019-04-07T10:08:00.408Z,17.69
2019-04-07T10:10:51.175Z,17.75
2019-04-07T10:13:25.415Z,17.76
2019-04-07T10:16:16.477Z,17.85
2019-04-07T10:18:50.976Z,17.93
2019-04-07T10:21:26.422Z,17.95
2019-04-07T10:24:17.010Z,18.00
2019-04-07T10:26:51.843Z,18.13
2019-04-07T10:29:41.265Z,18.20
2019-04-07T10:32:34.040Z,18.23
2019-04-07T10:35:12.685Z,18.33
2019-04-07T10:38:00.709Z,18.41
2019-04-07T10:40:40.038Z,18.48
2019-04-07T10:43:15.458Z,18.62
2019-04-07T10:45:50.492Z,18.71
2019-04-07T10:48:41.030Z,18.75
2019-04-07T10:51:30.876Z,18.86
2019-04-07T10:54:14.330Z,18.89
2019-04-07T10:56:51.748Z,18.92
2019-04-07T10:59:32.208Z,18.96
2019-04-07T11:02:09.111Z,18.99
2019-04-07T11:04:45.048Z,18.98
2019-04-07T11:07:34.005Z,18.98
2019-04-07T11:10:15.905Z,18.99
2019-04-07T11:12:58.297Z,19.02
2019-04-07T11:15:39.239Z,18.99
2019-04-07T11:18:20.669Z,18.98
2019-04-07T11:21:02.166Z,19.02
2019-04-07T11:23:53.405Z,19.03
2019-04-07T11:26:25.990Z,19.03
2019-04-07T11:29:04.660Z,19.11
2019-04-07T11:31:39.045Z,19.22
2019-04-07T11:34:16.215Z,19.23
2019-04-07T11:36:57.696Z,19.30
2019-04-07T11:39:35.159Z,19.31
2019-04-07T11:42:10.040Z,19.37
2019-04-07T11:44:47.417Z,19.43
2019-04-07T11:47:26.230Z,19.47
2019-04-07T11:49:59.263Z,19.50
2019-04-07T11:52:36.556Z,19.53
2019-04-07T11:55:31.278Z,19.54
2019-04-07T11:58:30.891Z,19.57
2019-04-07T12:01:12.775Z,19.60
2019-04-07T12:03:55.804Z,19.71
2019-04-07T12:06:31.482Z,19.79
2019-04-07T12:09:09.021Z,19.89
2019-04-07T12:11:41.857Z,19.98
2019-04-07T12:14:22.564Z,20.06
2019-04-07T12:17:13.769Z,20.09
2019-04-07T12:20:05.335Z,20.11
2019-04-07T12:22:55.612Z,20.09
2019-04-07T12:25:33.337Z,20.06
2019-04-07T12:28:09.779Z,20.09
2019-04-07T12:30:48.081Z,20.13
2019-04-07T12:33:22.948Z,20.19
2019-04-07T12:36:09.821Z,20.22
2019-04-07T12:38:46.716Z,20.26
2019-04-07T12:41:27.742Z,20.26
2019-04-07T12:44:09.416Z,20.23
2019-04-07T12:46:44.246Z,20.22
2019-04-07T12:49:21.530Z,20.20
2019-04-07T12:52:04.300Z,20.19
2019-04-07T12:54:55.773Z,20.20
2019-04-07T12:57:30.805Z,20.17
2019-04-07T13:00:10.286Z,20.22
2019-04-07T13:02:54.376Z,20.20
2019-04-07T13:05:36.856Z,20.20
2019-04-07T13:08:14.533Z,20.23
2019-04-07T13:10:49.409Z,20.24
2019-04-07T13:13:42.224Z,20.24
2019-04-07T13:16:21.429Z,20.24
2019-04-07T13:19:13.142Z,20.22
2019-04-07T13:21:58.643Z,20.20
2019-04-07T13:24:48.806Z,20.19
2019-04-07T13:27:23.546Z,20.20
2019-04-07T13:29:56.442Z,20.17
2019-04-07T13:32:41.681Z,20.17
2019-04-07T13:35:22.255Z,20.13
2019-04-07T13:38:09.420Z,20.12
2019-04-07T13:40:46.759Z,20.06
2019-04-07T13:43:19.377Z,20.02
2019-04-07T13:46:04.261Z,19.98
2019-04-07T13:48:48.597Z,19.95
2019-04-07T13:51:27.966Z,19.92
2019-04-07T13:54:08.208Z,19.86
2019-04-07T13:56:59.053Z,19.88
2019-04-07T13:59:49.651Z,19.89
2019-04-07T14:02:35.948Z,19.88
2019-04-07T14:05:11.576Z,19.85
2019-04-07T14:07:57.986Z,19.82
2019-04-07T14:10:44.986Z,19.81
2019-04-07T14:13:19.990Z,19.78
2019-04-07T14:15:53.167Z,19.79
2019-04-07T14:18:45.072Z,19.79
2019-04-07T14:21:22.796Z,19.76
2019-04-07T14:24:01.538Z,19.71
2019-04-07T14:26:38.819Z,19.74
2019-04-07T14:29:18.447Z,19.72
2019-04-07T14:31:59.801Z,19.72
2019-04-07T14:34:50.949Z,19.69
2019-04-07T14:37:36.242Z,19.65
2019-04-07T14:40:11.881Z,19.68
2019-04-07T14:42:47.063Z,19.68
2019-04-07T14:45:23.193Z,19.66
2019-04-07T14:47:58.945Z,19.66
2019-04-07T14:50:49.866Z,19.64
2019-04-07T14:53:34.390Z,19.58
2019-04-07T14:56:22.631Z,19.62
2019-04-07T14:59:09.295Z,19.61
2019-04-07T15:01:50.155Z,19.60
2019-04-07T15:04:25.596Z,19.58
2019-04-07T15:07:10.061Z,19.55
2019-04-07T15:09:48.055Z,19.54
2019-04-07T15:12:26.051Z,19.50
2019-04-07T15:14:58.956Z,19.46
2019-04-07T15:17:32.942Z,19.43
2019-04-07T15:20:12.333Z,19.40
2019-04-07T15:22:44.816Z,19.40
2019-04-07T15:25:18.303Z,19.34
2019-04-07T15:27:52.767Z,19.31
2019-04-07T15:30:26.446Z,19.30
2019-04-07T15:33:01.599Z,19.23
2019-04-07T15:35:34.128Z,19.23
2019-04-07T15:38:07.356Z,19.22
2019-04-07T15:40:40.731Z,19.14
2019-04-07T15:43:13.521Z,19.10
2019-04-07T15:45:48.612Z,19.09
2019-04-07T15:48:25.786Z,19.05
2019-04-07T15:51:00.587Z,19.00
2019-04-07T15:53:30.953Z,19.00
2019-04-07T15:56:06.494Z,18.93
2019-04-07T15:58:38.301Z,18.88
2019-04-07T16:01:11.790Z,18.82
2019-04-07T16:03:47.621Z,18.81
2019-04-07T16:06:19.551Z,18.74
2019-04-07T16:08:53.142Z,18.70
2019-04-07T16:11:28.320Z,18.65
2019-04-07T16:14:01.535Z,18.60
2019-04-07T16:16:34.775Z,18.55
2019-04-07T16:19:10.823Z,18.50
2019-04-07T16:21:44.010Z,18.46
2019-04-07T16:24:17.781Z,18.40
2019-04-07T16:26:51.443Z,18.37
2019-04-07T16:29:24.279Z,18.31
2019-04-07T16:31:58.684Z,18.24
2019-04-07T16:34:31.891Z,18.19
2019-04-07T16:37:04.925Z,18.13
2019-04-07T16:39:37.767Z,18.09
2019-04-07T16:42:11.382Z,18.02
2019-04-07T16:44:45.956Z,17.96
2019-04-07T16:47:24.443Z,17.93
2019-04-07T16:49:54.662Z,17.86
2019-04-07T16:52:31.120Z,17.79
2019-04-07T16:55:02.541Z,17.72
2019-04-07T16:57:35.100Z,17.67
2019-04-07T17:00:15.281Z,17.58
2019-04-07T17:02:48.201Z,17.51
2019-04-07T17:05:21.981Z,17.41
2019-04-07T17:07:56.892Z,17.35
2019-04-07T17:10:32.821Z,17.24
2019-04-07T17:13:15.309Z,17.17
2019-04-07T17:15:40.961Z,17.07
2019-04-07T17:18:39.736Z,17.00
2019-04-07T17:21:15.856Z,16.88
2019-04-07T17:23:53.199Z,16.76
2019-04-07T17:26:24.202Z,16.65
2019-04-07T17:28:58.577Z,16.52
2019-04-07T17:31:32.677Z,16.40
2019-04-07T17:34:09.919Z,16.27
2019-04-07T17:36:41.535Z,16.12
2019-04-07T17:39:14.462Z,15.97
2019-04-07T17:41:49.878Z,15.85
2019-04-07T17:44:32.586Z,15.73
2019-04-07T17:47:19.880Z,15.61
2019-04-07T17:50:06.755Z,15.44
2019-04-07T17:52:58.038Z,15.25
2019-04-07T17:55:41.848Z,15.13
2019-04-07T17:58:22.210Z,14.97
2019-04-07T18:01:12.762Z,14.83
2019-04-07T18:03:48.576Z,14.66
2019-04-07T18:06:31.301Z,14.54
2019-04-07T18:09:12.780Z,14.38
2019-04-07T18:12:03.034Z,14.24
2019-04-07T18:14:39.511Z,14.07
2019-04-07T18:17:15.042Z,13.94
2019-04-07T18:20:08.361Z,13.80
2019-04-07T18:22:58.107Z,13.68
2019-04-07T18:25:34.368Z,13.53
2019-04-07T18:28:09.421Z,13.39
2019-04-07T18:31:03.057Z,13.27
2019-04-07T18:33:38.631Z,13.15
2019-04-07T18:36:29.215Z,13.03
2019-04-07T18:39:17.342Z,12.93
2019-04-07T18:42:11.437Z,12.83
2019-04-07T18:44:55.308Z,12.70
2019-04-07T18:47:35.761Z,12.66
2019-04-07T18:50:29.065Z,12.56
2019-04-07T18:53:05.333Z,12.44
2019-04-07T18:55:39.066Z,12.34
2019-04-07T18:58:31.208Z,12.23
2019-04-07T19:01:08.624Z,12.13
2019-04-07T19:03:40.635Z,12.02
2019-04-07T19:06:18.113Z,11.91
2019-04-07T19:08:54.378Z,11.80
2019-04-07T19:11:28.596Z,11.70
2019-04-07T19:14:30.816Z,11.59
2019-04-07T19:16:50.727Z,11.46
2019-04-07T19:19:33.387Z,11.37
2019-04-07T19:22:24.784Z,11.25
2019-04-07T19:25:17.267Z,11.14
2019-04-07T19:28:08.123Z,11.04
2019-04-07T19:30:59.265Z,10.96
2019-04-07T19:33:33.925Z,10.84
2019-04-07T19:36:27.391Z,10.76
2019-04-07T19:39:02.692Z,10.63
2019-04-07T19:41:56.285Z,10.58
2019-04-07T19:44:38.950Z,10.45
2019-04-07T19:47:22.896Z,10.36
2019-04-07T19:50:13.655Z,10.24
2019-04-07T19:53:10.010Z,10.15
2019-04-07T19:55:47.252Z,10.08
2019-04-07T19:58:26.376Z,9.98
2019-04-07T20:01:12.754Z,9.89
2019-04-07T20:03:50.356Z,9.82
2019-04-07T20:06:27.929Z,9.70
2019-04-07T20:09:20.076Z,9.65
2019-04-07T20:11:55.406Z,9.56
2019-04-07T20:14:51.967Z,9.47
2019-04-07T20:17:38.808Z,9.41
2019-04-07T20:20:14.012Z,9.32
2019-04-07T20:23:00.186Z,9.27
2019-04-07T20:25:44.888Z,9.21
2019-04-07T20:28:30.395Z,9.12
2019-04-07T20:31:23.432Z,9.04
2019-04-07T20:34:02.142Z,8.97
2019-04-07T20:36:38.555Z,8.88
2019-04-07T20:39:27.450Z,8.81
2019-04-07T20:42:01.007Z,8.77
2019-04-07T20:44:36.521Z,8.71
2019-04-07T20:47:27.299Z,8.66
2019-04-07T20:50:05.529Z,8.57
2019-04-07T20:52:46.108Z,8.50
2019-04-07T20:55:39.539Z,8.43
2019-04-07T20:58:25.038Z,8.36
2019-04-07T21:01:04.640Z,8.29
2019-04-07T21:03:51.947Z,8.22
2019-04-07T21:06:44.155Z,8.17
2019-04-07T21:09:35.478Z,8.10
2019-04-07T21:12:19.265Z,8.01
2019-04-07T21:15:18.202Z,7.97
2019-04-07T21:17:42.727Z,7.90
2019-04-07T21:20:18.159Z,7.84
2019-04-07T21:22:52.650Z,7.77
2019-04-07T21:25:43.352Z,7.73
2019-04-07T21:28:18.236Z,7.66
2019-04-07T21:30:55.762Z,7.55
2019-04-07T21:33:45.761Z,7.46
2019-04-07T21:36:18.236Z,7.39
2019-04-07T21:38:58.446Z,7.31
2019-04-07T21:41:44.226Z,8.73
2019-04-07T21:44:27.063Z,11.08
2019-04-07T21:47:02.164Z,13.02
2019-04-07T21:49:38.223Z,13.38
2019-04-07T21:52:18.676Z,12.79
2019-04-07T21:55:00.776Z,12.29
2019-04-07T21:57:52.511Z,11.86
2019-04-07T22:00:32.877Z,11.41
2019-04-07T22:03:18.396Z,11.03
2019-04-07T22:06:09.551Z,10.66
2019-04-07T22:08:45.442Z,10.28
2019-04-07T22:11:22.617Z,9.94
2019-04-07T22:13:53.412Z,9.66
2019-04-07T22:16:30.757Z,9.38
2019-04-07T22:19:01.485Z,9.10
2019-04-07T22:21:34.172Z,8.87
2019-04-07T22:24:06.999Z,8.64
2019-04-07T22:26:40.539Z,8.43
2019-04-07T22:29:13.260Z,8.21
2019-04-07T22:31:47.886Z,8.04
2019-04-07T22:34:20.816Z,7.87
2019-04-07T22:36:53.745Z,7.70
2019-04-07T22:39:28.847Z,7.53
2019-04-07T22:42:02.218Z,7.35
2019-04-07T22:44:35.573Z,7.19
2019-04-07T22:47:09.416Z,7.01
2019-04-07T22:49:43.061Z,6.90
2019-04-07T22:52:17.662Z,6.77
2019-04-07T22:54:49.975Z,6.66
2019-04-07T22:57:23.330Z,6.56
2019-04-07T22:59:56.651Z,6.45
2019-04-07T23:02:29.793Z,6.36
2019-04-07T23:05:03.017Z,6.25
2019-04-07T23:07:35.703Z,6.18
2019-04-07T23:10:09.090Z,7.39
2019-04-07T23:12:42.319Z,9.65
2019-04-07T23:15:16.736Z,11.59
2019-04-07T23:17:49.412Z,12.07
2019-04-07T23:20:22.138Z,11.51
2019-04-07T23:22:54.941Z,11.00
2019-04-07T23:25:28.092Z,10.56
2019-04-07T23:28:00.811Z,10.20
2019-04-07T23:30:33.465Z,9.84
2019-04-07T23:33:06.337Z,9.49
2019-04-07T23:35:39.350Z,9.17
2019-04-07T23:38:12.280Z,8.86
2019-04-07T23:40:44.911Z,8.48
2019-04-07T23:43:17.722Z,8.17
2019-04-07T23:45:50.113Z,7.89
2019-04-07T23:48:22.796Z,7.62
2019-04-07T23:50:56.151Z,7.36
2019-04-07T23:54:11.230Z,7.14
2019-04-07T23:56:45.080Z,6.93
2019-04-07T23:59:17.451Z,6.72
